Terminal Aerodrome Forecast
Issued by NWS

Current Version | Previous Version | Text Only | Print | Product List | Glossary On
Versions: 1 2 3 4 5 6 7 8 9 10 11 12 13 14 15
633
FTUS43 KILX 231120
TAFCMI
TAF
KCMI 231120Z 2312/2412 12004KT 6SM BR FEW070
     FM231400 14006KT P6SM FEW050
     FM240000 11004KT P6SM SKC=

USA.gov is the U.S. government's official web portal to all federal, state and local government web resources and services.